sensor_id;sensor_type;location;lat;lon;timestamp;P1;durP1;ratioP1;P2;durP2;ratioP2
11837;SDS011;5978;51.020;6.764;2022-12-07T00:01:11;38.53;;;20.15;;
11837;SDS011;5978;51.020;6.764;2022-12-07T00:03:38;30.88;;;21.23;;
11837;SDS011;5978;51.020;6.764;2022-12-07T00:06:09;32.72;;;21.17;;
11837;SDS011;5978;51.020;6.764;2022-12-07T00:08:36;33.95;;;21.48;;
11837;SDS011;5978;51.020;6.764;2022-12-07T00:11:10;34.50;;;22.65;;
11837;SDS011;5978;51.020;6.764;2022-12-07T00:13:38;38.33;;;22.90;;
11837;SDS011;5978;51.020;6.764;2022-12-07T00:18:30;39.17;;;22.93;;
11837;SDS011;5978;51.020;6.764;2022-12-07T00:20:59;34.30;;;21.63;;
11837;SDS011;5978;51.020;6.764;2022-12-07T00:23:26;34.55;;;20.75;;
11837;SDS011;5978;51.020;6.764;2022-12-07T00:25:51;31.83;;;20.83;;
11837;SDS011;5978;51.020;6.764;2022-12-07T00:28:17;32.60;;;22.00;;
11837;SDS011;5978;51.020;6.764;2022-12-07T00:30:42;34.70;;;21.00;;
11837;SDS011;5978;51.020;6.764;2022-12-07T00:33:08;34.83;;;20.70;;
11837;SDS011;5978;51.020;6.764;2022-12-07T00:35:33;35.20;;;23.50;;
11837;SDS011;5978;51.020;6.764;2022-12-07T00:38:01;41.60;;;24.67;;
11837;SDS011;5978;51.020;6.764;2022-12-07T00:40:28;40.55;;;23.08;;
11837;SDS011;5978;51.020;6.764;2022-12-07T00:42:53;41.53;;;24.52;;
11837;SDS011;5978;51.020;6.764;2022-12-07T00:45:19;37.70;;;24.03;;
11837;SDS011;5978;51.020;6.764;2022-12-07T00:47:44;41.73;;;23.63;;
11837;SDS011;5978;51.020;6.764;2022-12-07T00:50:10;34.50;;;22.97;;
11837;SDS011;5978;51.020;6.764;2022-12-07T00:52:36;43.70;;;23.77;;
11837;SDS011;5978;51.020;6.764;2022-12-07T00:55:01;37.17;;;24.87;;
11837;SDS011;5978;51.020;6.764;2022-12-07T00:57:27;34.20;;;22.80;;
11837;SDS011;5978;51.020;6.764;2022-12-07T00:59:52;31.53;;;22.00;;
11837;SDS011;5978;51.020;6.764;2022-12-07T01:02:22;40.53;;;25.02;;
11837;SDS011;5978;51.020;6.764;2022-12-07T01:04:48;39.03;;;23.40;;
11837;SDS011;5978;51.020;6.764;2022-12-07T01:07:13;41.80;;;24.70;;
11837;SDS011;5978;51.020;6.764;2022-12-07T01:09:39;39.47;;;21.07;;
11837;SDS011;5978;51.020;6.764;2022-12-07T01:12:08;36.50;;;23.37;;
11837;SDS011;5978;51.020;6.764;2022-12-07T01:14:33;44.40;;;25.73;;
11837;SDS011;5978;51.020;6.764;2022-12-07T01:16:59;35.13;;;23.50;;
11837;SDS011;5978;51.020;6.764;2022-12-07T01:19:24;41.73;;;25.90;;
11837;SDS011;5978;51.020;6.764;2022-12-07T01:21:50;45.77;;;23.90;;
11837;SDS011;5978;51.020;6.764;2022-12-07T01:24:15;45.13;;;25.20;;
11837;SDS011;5978;51.020;6.764;2022-12-07T01:26:41;39.73;;;25.00;;
11837;SDS011;5978;51.020;6.764;2022-12-07T01:29:06;40.80;;;24.30;;
11837;SDS011;5978;51.020;6.764;2022-12-07T01:31:32;46.77;;;26.80;;
11837;SDS011;5978;51.020;6.764;2022-12-07T01:33:59;37.17;;;23.88;;
11837;SDS011;5978;51.020;6.764;2022-12-07T01:36:29;40.25;;;25.63;;
11837;SDS011;5978;51.020;6.764;2022-12-07T01:38:57;36.30;;;23.55;;
11837;SDS011;5978;51.020;6.764;2022-12-07T01:41:26;42.95;;;24.50;;
11837;SDS011;5978;51.020;6.764;2022-12-07T01:46:40;42.17;;;24.83;;
11837;SDS011;5978;51.020;6.764;2022-12-07T01:49:12;37.60;;;23.40;;
11837;SDS011;5978;51.020;6.764;2022-12-07T01:51:42;40.53;;;22.95;;
11837;SDS011;5978;51.020;6.764;2022-12-07T01:54:09;44.90;;;24.75;;
11837;SDS011;5978;51.020;6.764;2022-12-07T01:56:37;36.13;;;23.15;;
11837;SDS011;5978;51.020;6.764;2022-12-07T01:59:05;40.33;;;22.67;;
11837;SDS011;5978;51.020;6.764;2022-12-07T02:01:30;36.50;;;23.93;;
11837;SDS011;5978;51.020;6.764;2022-12-07T02:03:56;35.17;;;22.50;;
11837;SDS011;5978;51.020;6.764;2022-12-07T02:06:23;34.97;;;24.45;;
11837;SDS011;5978;51.020;6.764;2022-12-07T02:08:50;42.03;;;25.73;;
11837;SDS011;5978;51.020;6.764;2022-12-07T02:11:16;39.65;;;23.73;;
11837;SDS011;5978;51.020;6.764;2022-12-07T02:13:43;41.28;;;25.55;;
11837;SDS011;5978;51.020;6.764;2022-12-07T02:19:04;39.33;;;25.55;;
11837;SDS011;5978;51.020;6.764;2022-12-07T02:22:00;42.35;;;26.08;;
11837;SDS011;5978;51.020;6.764;2022-12-07T02:29:50;39.97;;;24.88;;
11837;SDS011;5978;51.020;6.764;2022-12-07T02:32:28;44.72;;;26.20;;
11837;SDS011;5978;51.020;6.764;2022-12-07T02:35:06;39.45;;;24.98;;
11837;SDS011;5978;51.020;6.764;2022-12-07T02:45:56;39.25;;;25.70;;
11837;SDS011;5978;51.020;6.764;2022-12-07T02:48:26;38.92;;;25.75;;
11837;SDS011;5978;51.020;6.764;2022-12-07T02:50:53;38.60;;;24.55;;
11837;SDS011;5978;51.020;6.764;2022-12-07T03:10:07;39.85;;;25.30;;
11837;SDS011;5978;51.020;6.764;2022-12-07T03:15:22;48.05;;;26.88;;
11837;SDS011;5978;51.020;6.764;2022-12-07T03:17:55;49.05;;;28.02;;
11837;SDS011;5978;51.020;6.764;2022-12-07T03:20:24;48.53;;;29.00;;
11837;SDS011;5978;51.020;6.764;2022-12-07T03:22:52;45.20;;;27.40;;
11837;SDS011;5978;51.020;6.764;2022-12-07T03:25:19;50.78;;;28.40;;
11837;SDS011;5978;51.020;6.764;2022-12-07T03:27:53;44.13;;;28.33;;
11837;SDS011;5978;51.020;6.764;2022-12-07T03:30:23;54.85;;;27.35;;
11837;SDS011;5978;51.020;6.764;2022-12-07T03:33:05;40.30;;;25.65;;
11837;SDS011;5978;51.020;6.764;2022-12-07T03:38:20;46.20;;;28.13;;
11837;SDS011;5978;51.020;6.764;2022-12-07T03:41:06;48.60;;;27.20;;
11837;SDS011;5978;51.020;6.764;2022-12-07T03:43:36;42.97;;;25.90;;
11837;SDS011;5978;51.020;6.764;2022-12-07T03:46:06;52.60;;;26.52;;
11837;SDS011;5978;51.020;6.764;2022-12-07T03:48:41;52.03;;;27.33;;
11837;SDS011;5978;51.020;6.764;2022-12-07T03:51:40;46.53;;;26.00;;
11837;SDS011;5978;51.020;6.764;2022-12-07T03:54:10;49.47;;;24.33;;
11837;SDS011;5978;51.020;6.764;2022-12-07T03:56:42;47.28;;;25.70;;
11837;SDS011;5978;51.020;6.764;2022-12-07T03:59:09;49.45;;;26.90;;
11837;SDS011;5978;51.020;6.764;2022-12-07T04:01:36;47.65;;;25.85;;
11837;SDS011;5978;51.020;6.764;2022-12-07T04:04:02;49.10;;;26.60;;
11837;SDS011;5978;51.020;6.764;2022-12-07T04:06:27;53.27;;;26.93;;
11837;SDS011;5978;51.020;6.764;2022-12-07T04:08:53;46.07;;;26.33;;
11837;SDS011;5978;51.020;6.764;2022-12-07T04:11:19;49.60;;;28.33;;
11837;SDS011;5978;51.020;6.764;2022-12-07T04:13:44;49.33;;;29.57;;
11837;SDS011;5978;51.020;6.764;2022-12-07T04:16:28;51.85;;;29.83;;
11837;SDS011;5978;51.020;6.764;2022-12-07T04:18:54;50.37;;;28.20;;
11837;SDS011;5978;51.020;6.764;2022-12-07T04:21:19;50.37;;;28.30;;
11837;SDS011;5978;51.020;6.764;2022-12-07T04:23:45;48.13;;;28.73;;
11837;SDS011;5978;51.020;6.764;2022-12-07T04:26:11;53.37;;;29.87;;
11837;SDS011;5978;51.020;6.764;2022-12-07T04:28:36;61.70;;;30.30;;
11837;SDS011;5978;51.020;6.764;2022-12-07T04:31:02;46.30;;;26.70;;
11837;SDS011;5978;51.020;6.764;2022-12-07T04:33:27;44.57;;;26.70;;
11837;SDS011;5978;51.020;6.764;2022-12-07T04:35:53;44.03;;;26.00;;
11837;SDS011;5978;51.020;6.764;2022-12-07T04:38:18;49.20;;;26.77;;
11837;SDS011;5978;51.020;6.764;2022-12-07T04:40:44;41.40;;;25.60;;
11837;SDS011;5978;51.020;6.764;2022-12-07T04:43:09;49.03;;;24.60;;
11837;SDS011;5978;51.020;6.764;2022-12-07T04:45:35;46.17;;;24.73;;
11837;SDS011;5978;51.020;6.764;2022-12-07T04:48:01;50.30;;;24.80;;
11837;SDS011;5978;51.020;6.764;2022-12-07T04:50:26;50.27;;;25.37;;
11837;SDS011;5978;51.020;6.764;2022-12-07T04:52:52;45.93;;;25.30;;
11837;SDS011;5978;51.020;6.764;2022-12-07T04:55:18;46.70;;;26.13;;
11837;SDS011;5978;51.020;6.764;2022-12-07T04:57:43;42.27;;;24.43;;
11837;SDS011;5978;51.020;6.764;2022-12-07T05:00:09;51.43;;;26.90;;
11837;SDS011;5978;51.020;6.764;2022-12-07T05:02:35;42.83;;;27.27;;
11837;SDS011;5978;51.020;6.764;2022-12-07T05:05:00;55.50;;;28.73;;
11837;SDS011;5978;51.020;6.764;2022-12-07T05:07:26;44.30;;;28.07;;
11837;SDS011;5978;51.020;6.764;2022-12-07T05:09:51;47.73;;;29.73;;
11837;SDS011;5978;51.020;6.764;2022-12-07T05:12:17;51.40;;;27.67;;
11837;SDS011;5978;51.020;6.764;2022-12-07T05:14:43;48.30;;;29.33;;
11837;SDS011;5978;51.020;6.764;2022-12-07T05:17:08;47.10;;;28.90;;
11837;SDS011;5978;51.020;6.764;2022-12-07T05:19:34;47.13;;;29.17;;
11837;SDS011;5978;51.020;6.764;2022-12-07T05:21:59;52.50;;;30.40;;
11837;SDS011;5978;51.020;6.764;2022-12-07T05:24:26;49.55;;;26.70;;
11837;SDS011;5978;51.020;6.764;2022-12-07T05:26:51;43.33;;;27.63;;
11837;SDS011;5978;51.020;6.764;2022-12-07T05:29:17;48.17;;;27.00;;
11837;SDS011;5978;51.020;6.764;2022-12-07T05:31:43;44.47;;;27.00;;
11837;SDS011;5978;51.020;6.764;2022-12-07T05:34:09;46.13;;;27.35;;
11837;SDS011;5978;51.020;6.764;2022-12-07T05:36:35;44.72;;;26.67;;
11837;SDS011;5978;51.020;6.764;2022-12-07T05:39:01;39.80;;;25.80;;
11837;SDS011;5978;51.020;6.764;2022-12-07T05:41:27;48.03;;;25.95;;
11837;SDS011;5978;51.020;6.764;2022-12-07T05:44:11;41.05;;;24.25;;
11837;SDS011;5978;51.020;6.764;2022-12-07T05:46:37;38.83;;;26.47;;
11837;SDS011;5978;51.020;6.764;2022-12-07T05:49:03;41.90;;;27.50;;
11837;SDS011;5978;51.020;6.764;2022-12-07T05:51:28;47.10;;;26.50;;
11837;SDS011;5978;51.020;6.764;2022-12-07T05:53:54;43.40;;;24.60;;
11837;SDS011;5978;51.020;6.764;2022-12-07T05:56:19;42.20;;;25.17;;
11837;SDS011;5978;51.020;6.764;2022-12-07T05:58:45;45.10;;;27.47;;
11837;SDS011;5978;51.020;6.764;2022-12-07T06:01:29;43.88;;;24.35;;
11837;SDS011;5978;51.020;6.764;2022-12-07T06:03:55;38.63;;;25.97;;
11837;SDS011;5978;51.020;6.764;2022-12-07T06:06:21;51.27;;;27.07;;
11837;SDS011;5978;51.020;6.764;2022-12-07T06:08:46;38.90;;;24.03;;
11837;SDS011;5978;51.020;6.764;2022-12-07T06:11:12;45.60;;;26.57;;
11837;SDS011;5978;51.020;6.764;2022-12-07T06:13:56;39.15;;;22.92;;
11837;SDS011;5978;51.020;6.764;2022-12-07T06:16:22;41.00;;;23.87;;
11837;SDS011;5978;51.020;6.764;2022-12-07T06:18:47;40.87;;;23.37;;
11837;SDS011;5978;51.020;6.764;2022-12-07T06:21:13;39.30;;;23.60;;
11837;SDS011;5978;51.020;6.764;2022-12-07T06:23:39;35.92;;;22.80;;
11837;SDS011;5978;51.020;6.764;2022-12-07T06:26:04;38.90;;;24.20;;
11837;SDS011;5978;51.020;6.764;2022-12-07T06:28:30;38.70;;;23.23;;
11837;SDS011;5978;51.020;6.764;2022-12-07T06:30:56;42.63;;;23.57;;
11837;SDS011;5978;51.020;6.764;2022-12-07T06:33:26;44.72;;;25.65;;
11837;SDS011;5978;51.020;6.764;2022-12-07T06:35:51;47.80;;;24.48;;
11837;SDS011;5978;51.020;6.764;2022-12-07T06:38:17;44.90;;;23.03;;
11837;SDS011;5978;51.020;6.764;2022-12-07T06:40:43;40.40;;;22.43;;
11837;SDS011;5978;51.020;6.764;2022-12-07T06:43:08;43.73;;;25.20;;
11837;SDS011;5978;51.020;6.764;2022-12-07T06:45:34;41.03;;;23.73;;
11837;SDS011;5978;51.020;6.764;2022-12-07T06:48:00;41.77;;;25.57;;
11837;SDS011;5978;51.020;6.764;2022-12-07T06:50:26;46.47;;;25.98;;
11837;SDS011;5978;51.020;6.764;2022-12-07T06:52:51;39.03;;;24.20;;
11837;SDS011;5978;51.020;6.764;2022-12-07T06:55:17;46.27;;;27.10;;
11837;SDS011;5978;51.020;6.764;2022-12-07T06:57:43;46.77;;;28.13;;
11837;SDS011;5978;51.020;6.764;2022-12-07T07:00:09;43.90;;;26.10;;
11837;SDS011;5978;51.020;6.764;2022-12-07T07:02:35;53.00;;;29.60;;
11837;SDS011;5978;51.020;6.764;2022-12-07T07:05:02;42.67;;;26.93;;
11837;SDS011;5978;51.020;6.764;2022-12-07T07:07:31;46.67;;;28.70;;
11837;SDS011;5978;51.020;6.764;2022-12-07T07:10:03;48.95;;;26.42;;
11837;SDS011;5978;51.020;6.764;2022-12-07T07:12:29;42.28;;;25.65;;
11837;SDS011;5978;51.020;6.764;2022-12-07T07:14:55;42.37;;;25.73;;
11837;SDS011;5978;51.020;6.764;2022-12-07T07:17:20;46.90;;;26.90;;
11837;SDS011;5978;51.020;6.764;2022-12-07T07:19:46;49.53;;;26.87;;
11837;SDS011;5978;51.020;6.764;2022-12-07T07:22:11;45.43;;;28.93;;
11837;SDS011;5978;51.020;6.764;2022-12-07T07:24:37;45.67;;;25.37;;
11837;SDS011;5978;51.020;6.764;2022-12-07T07:27:02;52.13;;;25.70;;
11837;SDS011;5978;51.020;6.764;2022-12-07T07:29:28;37.33;;;24.67;;
11837;SDS011;5978;51.020;6.764;2022-12-07T07:31:54;48.70;;;26.00;;
11837;SDS011;5978;51.020;6.764;2022-12-07T07:34:19;41.40;;;23.67;;
11837;SDS011;5978;51.020;6.764;2022-12-07T07:36:45;35.73;;;24.23;;
11837;SDS011;5978;51.020;6.764;2022-12-07T07:39:10;40.93;;;24.40;;
11837;SDS011;5978;51.020;6.764;2022-12-07T07:41:37;37.42;;;23.00;;
11837;SDS011;5978;51.020;6.764;2022-12-07T07:44:03;51.83;;;23.87;;
11837;SDS011;5978;51.020;6.764;2022-12-07T07:46:29;41.23;;;24.67;;
11837;SDS011;5978;51.020;6.764;2022-12-07T07:48:55;40.65;;;24.60;;
11837;SDS011;5978;51.020;6.764;2022-12-07T07:51:20;41.83;;;26.53;;
11837;SDS011;5978;51.020;6.764;2022-12-07T07:53:46;41.03;;;23.40;;
11837;SDS011;5978;51.020;6.764;2022-12-07T07:56:12;36.40;;;23.17;;
11837;SDS011;5978;51.020;6.764;2022-12-07T07:58:37;43.43;;;25.53;;
11837;SDS011;5978;51.020;6.764;2022-12-07T08:01:04;40.33;;;24.77;;
11837;SDS011;5978;51.020;6.764;2022-12-07T08:03:31;36.35;;;25.00;;
11837;SDS011;5978;51.020;6.764;2022-12-07T08:05:57;40.93;;;24.33;;
11837;SDS011;5978;51.020;6.764;2022-12-07T08:08:22;38.37;;;22.53;;
11837;SDS011;5978;51.020;6.764;2022-12-07T08:10:48;42.23;;;24.67;;
11837;SDS011;5978;51.020;6.764;2022-12-07T08:13:15;35.00;;;23.40;;
11837;SDS011;5978;51.020;6.764;2022-12-07T08:15:41;41.03;;;22.92;;
11837;SDS011;5978;51.020;6.764;2022-12-07T08:18:09;38.22;;;24.27;;
11837;SDS011;5978;51.020;6.764;2022-12-07T08:20:35;38.90;;;21.98;;
11837;SDS011;5978;51.020;6.764;2022-12-07T08:23:02;33.25;;;23.27;;
11837;SDS011;5978;51.020;6.764;2022-12-07T08:25:28;45.65;;;22.30;;
11837;SDS011;5978;51.020;6.764;2022-12-07T08:27:54;37.20;;;24.13;;
11837;SDS011;5978;51.020;6.764;2022-12-07T08:30:22;41.13;;;25.57;;
11837;SDS011;5978;51.020;6.764;2022-12-07T08:32:48;37.72;;;22.30;;
11837;SDS011;5978;51.020;6.764;2022-12-07T08:35:14;33.75;;;22.00;;
11837;SDS011;5978;51.020;6.764;2022-12-07T08:37:40;32.63;;;20.40;;
11837;SDS011;5978;51.020;6.764;2022-12-07T08:40:07;34.07;;;23.80;;
11837;SDS011;5978;51.020;6.764;2022-12-07T08:42:34;34.92;;;22.35;;
11837;SDS011;5978;51.020;6.764;2022-12-07T08:45:09;38.30;;;22.35;;
11837;SDS011;5978;51.020;6.764;2022-12-07T08:47:44;36.20;;;22.50;;
11837;SDS011;5978;51.020;6.764;2022-12-07T08:50:20;42.22;;;23.58;;
11837;SDS011;5978;51.020;6.764;2022-12-07T08:52:53;40.45;;;24.48;;
11837;SDS011;5978;51.020;6.764;2022-12-07T08:55:21;36.80;;;24.10;;
11837;SDS011;5978;51.020;6.764;2022-12-07T08:57:48;45.85;;;27.17;;
11837;SDS011;5978;51.020;6.764;2022-12-07T09:00:13;37.30;;;23.27;;
11837;SDS011;5978;51.020;6.764;2022-12-07T09:02:41;40.13;;;24.15;;
11837;SDS011;5978;51.020;6.764;2022-12-07T09:05:09;37.63;;;23.73;;
11837;SDS011;5978;51.020;6.764;2022-12-07T09:07:35;38.77;;;22.87;;
11837;SDS011;5978;51.020;6.764;2022-12-07T09:10:03;35.50;;;24.52;;
11837;SDS011;5978;51.020;6.764;2022-12-07T09:12:30;36.97;;;21.35;;
11837;SDS011;5978;51.020;6.764;2022-12-07T09:14:56;32.67;;;20.87;;
11837;SDS011;5978;51.020;6.764;2022-12-07T09:17:22;37.47;;;21.27;;
11837;SDS011;5978;51.020;6.764;2022-12-07T09:19:47;31.30;;;20.83;;
11837;SDS011;5978;51.020;6.764;2022-12-07T09:22:13;37.30;;;23.43;;
11837;SDS011;5978;51.020;6.764;2022-12-07T09:24:38;34.03;;;21.00;;
11837;SDS011;5978;51.020;6.764;2022-12-07T09:27:04;31.97;;;20.17;;
11837;SDS011;5978;51.020;6.764;2022-12-07T09:29:30;32.88;;;21.27;;
11837;SDS011;5978;51.020;6.764;2022-12-07T09:31:56;35.40;;;20.40;;
11837;SDS011;5978;51.020;6.764;2022-12-07T09:34:21;33.03;;;19.23;;
11837;SDS011;5978;51.020;6.764;2022-12-07T09:36:47;29.37;;;18.47;;
11837;SDS011;5978;51.020;6.764;2022-12-07T09:39:12;32.93;;;17.73;;
11837;SDS011;5978;51.020;6.764;2022-12-07T09:41:38;30.33;;;17.23;;
11837;SDS011;5978;51.020;6.764;2022-12-07T09:44:09;29.75;;;18.40;;
11837;SDS011;5978;51.020;6.764;2022-12-07T09:46:38;25.50;;;17.35;;
11837;SDS011;5978;51.020;6.764;2022-12-07T09:49:16;27.67;;;16.10;;
11837;SDS011;5978;51.020;6.764;2022-12-07T09:54:51;30.10;;;18.27;;
11837;SDS011;5978;51.020;6.764;2022-12-07T09:57:18;23.67;;;14.18;;
11837;SDS011;5978;51.020;6.764;2022-12-07T09:59:57;28.08;;;17.90;;
11837;SDS011;5978;51.020;6.764;2022-12-07T10:04:55;28.80;;;16.45;;
11837;SDS011;5978;51.020;6.764;2022-12-07T10:07:22;25.10;;;13.70;;
11837;SDS011;5978;51.020;6.764;2022-12-07T10:09:48;22.73;;;14.13;;
11837;SDS011;5978;51.020;6.764;2022-12-07T10:12:14;24.73;;;14.73;;
11837;SDS011;5978;51.020;6.764;2022-12-07T10:14:51;19.40;;;13.13;;
11837;SDS011;5978;51.020;6.764;2022-12-07T10:17:30;19.92;;;12.63;;
11837;SDS011;5978;51.020;6.764;2022-12-07T10:22:54;16.58;;;11.35;;
11837;SDS011;5978;51.020;6.764;2022-12-07T10:25:21;29.95;;;12.38;;
11837;SDS011;5978;51.020;6.764;2022-12-07T10:33:36;21.77;;;11.95;;
11837;SDS011;5978;51.020;6.764;2022-12-07T10:38:59;18.60;;;9.02;;
11837;SDS011;5978;51.020;6.764;2022-12-07T10:41:28;19.70;;;10.32;;
11837;SDS011;5978;51.020;6.764;2022-12-07T10:43:54;24.53;;;10.03;;
11837;SDS011;5978;51.020;6.764;2022-12-07T10:57:10;17.92;;;10.65;;
11837;SDS011;5978;51.020;6.764;2022-12-07T11:05:23;18.75;;;10.80;;
11837;SDS011;5978;51.020;6.764;2022-12-07T11:08:03;15.27;;;9.35;;
11837;SDS011;5978;51.020;6.764;2022-12-07T11:14:12;11.10;;;8.40;;
11837;SDS011;5978;51.020;6.764;2022-12-07T11:17:07;14.48;;;11.02;;
11837;SDS011;5978;51.020;6.764;2022-12-07T11:25:46;15.88;;;10.52;;
11837;SDS011;5978;51.020;6.764;2022-12-07T11:30:43;19.15;;;11.50;;
11837;SDS011;5978;51.020;6.764;2022-12-07T11:33:17;20.60;;;10.93;;
11837;SDS011;5978;51.020;6.764;2022-12-07T11:36:13;15.70;;;9.55;;
11837;SDS011;5978;51.020;6.764;2022-12-07T11:38:57;19.67;;;11.07;;
11837;SDS011;5978;51.020;6.764;2022-12-07T11:41:31;19.67;;;12.13;;
11837;SDS011;5978;51.020;6.764;2022-12-07T11:49:19;20.20;;;10.87;;
11837;SDS011;5978;51.020;6.764;2022-12-07T11:51:46;15.90;;;10.50;;
11837;SDS011;5978;51.020;6.764;2022-12-07T11:56:53;19.60;;;11.82;;
11837;SDS011;5978;51.020;6.764;2022-12-07T11:59:27;21.92;;;12.25;;
11837;SDS011;5978;51.020;6.764;2022-12-07T12:01:56;19.00;;;12.10;;
11837;SDS011;5978;51.020;6.764;2022-12-07T12:04:38;21.48;;;12.25;;
11837;SDS011;5978;51.020;6.764;2022-12-07T12:07:19;21.52;;;12.23;;
11837;SDS011;5978;51.020;6.764;2022-12-07T12:15:04;20.20;;;12.38;;
11837;SDS011;5978;51.020;6.764;2022-12-07T12:20:40;22.60;;;12.45;;
11837;SDS011;5978;51.020;6.764;2022-12-07T12:25:58;15.18;;;9.73;;
11837;SDS011;5978;51.020;6.764;2022-12-07T12:28:29;16.48;;;10.50;;
11837;SDS011;5978;51.020;6.764;2022-12-07T12:31:14;15.07;;;9.30;;
11837;SDS011;5978;51.020;6.764;2022-12-07T12:33:44;17.00;;;10.18;;
11837;SDS011;5978;51.020;6.764;2022-12-07T12:36:23;14.63;;;8.45;;
11837;SDS011;5978;51.020;6.764;2022-12-07T12:47:03;16.10;;;8.20;;
11837;SDS011;5978;51.020;6.764;2022-12-07T12:50:29;17.48;;;11.18;;
11837;SDS011;5978;51.020;6.764;2022-12-07T12:53:04;19.80;;;11.65;;
11837;SDS011;5978;51.020;6.764;2022-12-07T12:58:44;28.20;;;13.27;;
11837;SDS011;5978;51.020;6.764;2022-12-07T13:03:57;18.55;;;12.20;;
11837;SDS011;5978;51.020;6.764;2022-12-07T13:06:34;24.83;;;14.57;;
11837;SDS011;5978;51.020;6.764;2022-12-07T13:09:03;21.10;;;13.40;;
11837;SDS011;5978;51.020;6.764;2022-12-07T13:11:33;28.23;;;12.25;;
11837;SDS011;5978;51.020;6.764;2022-12-07T13:17:04;22.42;;;12.65;;
11837;SDS011;5978;51.020;6.764;2022-12-07T13:22:31;22.33;;;13.50;;
11837;SDS011;5978;51.020;6.764;2022-12-07T13:24:57;23.50;;;12.70;;
11837;SDS011;5978;51.020;6.764;2022-12-07T13:27:37;23.27;;;13.73;;
11837;SDS011;5978;51.020;6.764;2022-12-07T13:30:19;21.38;;;12.80;;
11837;SDS011;5978;51.020;6.764;2022-12-07T13:32:56;24.90;;;13.10;;
11837;SDS011;5978;51.020;6.764;2022-12-07T13:38:02;23.55;;;13.55;;
11837;SDS011;5978;51.020;6.764;2022-12-07T13:40:30;20.13;;;12.38;;
11837;SDS011;5978;51.020;6.764;2022-12-07T13:43:02;20.87;;;12.27;;
11837;SDS011;5978;51.020;6.764;2022-12-07T13:45:30;26.48;;;12.68;;
11837;SDS011;5978;51.020;6.764;2022-12-07T13:48:58;20.02;;;12.57;;
11837;SDS011;5978;51.020;6.764;2022-12-07T13:51:02;22.33;;;12.35;;
11837;SDS011;5978;51.020;6.764;2022-12-07T13:53:29;18.10;;;10.70;;
11837;SDS011;5978;51.020;6.764;2022-12-07T13:55:58;35.05;;;13.68;;
11837;SDS011;5978;51.020;6.764;2022-12-07T13:58:25;18.90;;;11.95;;
11837;SDS011;5978;51.020;6.764;2022-12-07T14:01:00;18.15;;;12.55;;
11837;SDS011;5978;51.020;6.764;2022-12-07T14:03:28;15.65;;;10.68;;
11837;SDS011;5978;51.020;6.764;2022-12-07T14:09:06;27.35;;;12.15;;
11837;SDS011;5978;51.020;6.764;2022-12-07T14:11:33;20.90;;;11.98;;
11837;SDS011;5978;51.020;6.764;2022-12-07T14:13:59;22.73;;;12.20;;
11837;SDS011;5978;51.020;6.764;2022-12-07T14:16:28;23.30;;;13.60;;
11837;SDS011;5978;51.020;6.764;2022-12-07T14:19:04;19.40;;;11.85;;
11837;SDS011;5978;51.020;6.764;2022-12-07T14:21:50;20.42;;;12.95;;
11837;SDS011;5978;51.020;6.764;2022-12-07T14:24:45;21.92;;;13.15;;
11837;SDS011;5978;51.020;6.764;2022-12-07T14:27:18;20.30;;;12.20;;
11837;SDS011;5978;51.020;6.764;2022-12-07T14:29:45;20.90;;;11.77;;
11837;SDS011;5978;51.020;6.764;2022-12-07T14:32:23;17.42;;;10.93;;
11837;SDS011;5978;51.020;6.764;2022-12-07T14:35:12;23.80;;;12.52;;
11837;SDS011;5978;51.020;6.764;2022-12-07T14:37:39;21.70;;;10.93;;
11837;SDS011;5978;51.020;6.764;2022-12-07T14:40:06;19.20;;;11.10;;
11837;SDS011;5978;51.020;6.764;2022-12-07T14:42:36;19.15;;;11.55;;
11837;SDS011;5978;51.020;6.764;2022-12-07T14:45:03;25.58;;;13.50;;
11837;SDS011;5978;51.020;6.764;2022-12-07T14:47:29;21.10;;;12.23;;
11837;SDS011;5978;51.020;6.764;2022-12-07T14:49:54;20.13;;;12.30;;
11837;SDS011;5978;51.020;6.764;2022-12-07T14:52:21;15.60;;;10.77;;
11837;SDS011;5978;51.020;6.764;2022-12-07T14:54:52;15.00;;;11.25;;
11837;SDS011;5978;51.020;6.764;2022-12-07T14:57:17;17.50;;;9.80;;
11837;SDS011;5978;51.020;6.764;2022-12-07T14:59:43;15.03;;;8.90;;
11837;SDS011;5978;51.020;6.764;2022-12-07T15:02:10;10.40;;;7.67;;
11837;SDS011;5978;51.020;6.764;2022-12-07T15:04:37;11.35;;;7.10;;
11837;SDS011;5978;51.020;6.764;2022-12-07T15:07:04;12.70;;;7.60;;
11837;SDS011;5978;51.020;6.764;2022-12-07T15:09:34;11.57;;;8.43;;
11837;SDS011;5978;51.020;6.764;2022-12-07T15:11:59;13.03;;;9.43;;
11837;SDS011;5978;51.020;6.764;2022-12-07T15:14:25;15.13;;;11.03;;
11837;SDS011;5978;51.020;6.764;2022-12-07T15:16:50;16.10;;;11.27;;
11837;SDS011;5978;51.020;6.764;2022-12-07T15:19:17;19.40;;;11.93;;
11837;SDS011;5978;51.020;6.764;2022-12-07T15:21:45;19.80;;;12.95;;
11837;SDS011;5978;51.020;6.764;2022-12-07T15:24:11;17.37;;;12.40;;
11837;SDS011;5978;51.020;6.764;2022-12-07T15:26:38;21.23;;;13.30;;
11837;SDS011;5978;51.020;6.764;2022-12-07T15:29:04;18.55;;;12.60;;
11837;SDS011;5978;51.020;6.764;2022-12-07T15:31:31;16.80;;;11.27;;
11837;SDS011;5978;51.020;6.764;2022-12-07T15:33:57;17.40;;;11.38;;
11837;SDS011;5978;51.020;6.764;2022-12-07T15:36:24;13.77;;;10.53;;
11837;SDS011;5978;51.020;6.764;2022-12-07T15:38:51;18.75;;;11.40;;
11837;SDS011;5978;51.020;6.764;2022-12-07T15:41:17;18.88;;;10.38;;
11837;SDS011;5978;51.020;6.764;2022-12-07T15:43:43;15.73;;;11.33;;
11837;SDS011;5978;51.020;6.764;2022-12-07T15:46:34;14.00;;;10.75;;
11837;SDS011;5978;51.020;6.764;2022-12-07T15:49:02;17.05;;;10.45;;
11837;SDS011;5978;51.020;6.764;2022-12-07T15:51:29;12.57;;;9.63;;
11837;SDS011;5978;51.020;6.764;2022-12-07T15:53:56;20.70;;;11.90;;
11837;SDS011;5978;51.020;6.764;2022-12-07T15:56:23;16.73;;;10.40;;
11837;SDS011;5978;51.020;6.764;2022-12-07T15:58:49;20.60;;;12.03;;
11837;SDS011;5978;51.020;6.764;2022-12-07T16:01:16;14.63;;;9.50;;
11837;SDS011;5978;51.020;6.764;2022-12-07T16:03:43;13.48;;;9.65;;
11837;SDS011;5978;51.020;6.764;2022-12-07T16:06:10;17.50;;;10.30;;
11837;SDS011;5978;51.020;6.764;2022-12-07T16:08:36;20.92;;;10.55;;
11837;SDS011;5978;51.020;6.764;2022-12-07T16:11:05;18.10;;;12.00;;
11837;SDS011;5978;51.020;6.764;2022-12-07T16:13:31;14.18;;;11.13;;
11837;SDS011;5978;51.020;6.764;2022-12-07T16:15:57;14.23;;;10.43;;
11837;SDS011;5978;51.020;6.764;2022-12-07T16:18:22;15.37;;;10.20;;
11837;SDS011;5978;51.020;6.764;2022-12-07T16:20:48;12.80;;;9.60;;
11837;SDS011;5978;51.020;6.764;2022-12-07T16:23:14;19.58;;;11.60;;
11837;SDS011;5978;51.020;6.764;2022-12-07T16:25:40;13.70;;;10.10;;
11837;SDS011;5978;51.020;6.764;2022-12-07T16:28:06;19.63;;;11.03;;
11837;SDS011;5978;51.020;6.764;2022-12-07T16:30:33;15.73;;;11.18;;
11837;SDS011;5978;51.020;6.764;2022-12-07T16:32:58;25.20;;;12.67;;
11837;SDS011;5978;51.020;6.764;2022-12-07T16:35:24;20.70;;;12.37;;
11837;SDS011;5978;51.020;6.764;2022-12-07T16:37:50;17.30;;;11.17;;
11837;SDS011;5978;51.020;6.764;2022-12-07T16:40:15;19.63;;;11.03;;
11837;SDS011;5978;51.020;6.764;2022-12-07T16:42:41;17.53;;;10.93;;
11837;SDS011;5978;51.020;6.764;2022-12-07T16:45:07;23.53;;;12.17;;
11837;SDS011;5978;51.020;6.764;2022-12-07T16:47:32;19.77;;;11.10;;
11837;SDS011;5978;51.020;6.764;2022-12-07T16:49:58;19.87;;;11.33;;
11837;SDS011;5978;51.020;6.764;2022-12-07T16:52:23;18.43;;;12.30;;
11837;SDS011;5978;51.020;6.764;2022-12-07T16:54:49;16.00;;;11.10;;
11837;SDS011;5978;51.020;6.764;2022-12-07T16:57:16;16.93;;;11.60;;
11837;SDS011;5978;51.020;6.764;2022-12-07T16:59:42;20.33;;;12.18;;